sensor_id;sensor_type;location;lat;lon;timestamp;pressure;altitude;pressure_sealevel;temperature;humidity
74169;BME280;62523;53.336;83.690;2023-08-20T00:00:26;98678.84;;;13.59;100.00
74169;BME280;62523;53.336;83.690;2023-08-20T00:05:29;98671.75;;;13.70;100.00
74169;BME280;62523;53.336;83.690;2023-08-20T00:10:31;98692.56;;;13.75;100.00
74169;BME280;62523;53.336;83.690;2023-08-20T00:15:33;98688.44;;;13.82;100.00
74169;BME280;62523;53.336;83.690;2023-08-20T00:20:35;98687.13;;;13.88;100.00
74169;BME280;62523;53.336;83.690;2023-08-20T00:25:37;98698.19;;;13.93;100.00
74169;BME280;62523;53.336;83.690;2023-08-20T00:30:39;98697.34;;;13.92;100.00
74169;BME280;62523;53.336;83.690;2023-08-20T00:35:49;98709.97;;;14.00;100.00
74169;BME280;62523;53.336;83.690;2023-08-20T00:40:50;98708.25;;;14.10;100.00
74169;BME280;62523;53.336;83.690;2023-08-20T00:45:52;98701.00;;;14.35;100.00
74169;BME280;62523;53.336;83.690;2023-08-20T00:50:54;98701.94;;;14.99;100.00
74169;BME280;62523;53.336;83.690;2023-08-20T00:55:55;98679.06;;;15.59;100.00
74169;BME280;62523;53.336;83.690;2023-08-20T01:00:57;98664.63;;;15.83;100.00
74169;BME280;62523;53.336;83.690;2023-08-20T01:06:12;98656.72;;;15.92;100.00
74169;BME280;62523;53.336;83.690;2023-08-20T01:11:26;98686.66;;;15.12;100.00
74169;BME280;62523;53.336;83.690;2023-08-20T01:16:30;98699.44;;;14.97;100.00
74169;BME280;62523;53.336;83.690;2023-08-20T01:21:39;98710.91;;;15.80;100.00
74169;BME280;62523;53.336;83.690;2023-08-20T01:26:53;98713.25;;;15.52;100.00
74169;BME280;62523;53.336;83.690;2023-08-20T01:31:57;98710.34;;;16.46;100.00
74169;BME280;62523;53.336;83.690;2023-08-20T01:37:00;98719.16;;;15.87;100.00
74169;BME280;62523;53.336;83.690;2023-08-20T01:42:01;98736.25;;;15.42;100.00
74169;BME280;62523;53.336;83.690;2023-08-20T01:47:03;98727.00;;;16.77;100.00
74169;BME280;62523;53.336;83.690;2023-08-20T01:52:04;98730.63;;;16.47;100.00
74169;BME280;62523;53.336;83.690;2023-08-20T01:57:06;98732.00;;;16.32;100.00
74169;BME280;62523;53.336;83.690;2023-08-20T02:02:08;98744.19;;;16.34;100.00
74169;BME280;62523;53.336;83.690;2023-08-20T02:07:09;98736.28;;;16.83;100.00
74169;BME280;62523;53.336;83.690;2023-08-20T02:12:10;98730.94;;;17.12;100.00
74169;BME280;62523;53.336;83.690;2023-08-20T02:17:13;98733.78;;;17.48;100.00
74169;BME280;62523;53.336;83.690;2023-08-20T02:22:15;98727.47;;;17.59;100.00
74169;BME280;62523;53.336;83.690;2023-08-20T02:27:16;98727.00;;;17.64;100.00
74169;BME280;62523;53.336;83.690;2023-08-20T02:32:18;98725.75;;;17.68;100.00
74169;BME280;62523;53.336;83.690;2023-08-20T02:37:20;98734.50;;;17.50;100.00
74169;BME280;62523;53.336;83.690;2023-08-20T02:42:22;98727.13;;;17.72;100.00
74169;BME280;62523;53.336;83.690;2023-08-20T02:47:24;98722.88;;;18.16;100.00
74169;BME280;62523;53.336;83.690;2023-08-20T02:52:26;98732.03;;;18.14;100.00
74169;BME280;62523;53.336;83.690;2023-08-20T02:57:27;98725.75;;;18.69;100.00
74169;BME280;62523;53.336;83.690;2023-08-20T03:02:29;98714.63;;;19.09;100.00
74169;BME280;62523;53.336;83.690;2023-08-20T03:07:31;98720.38;;;19.49;100.00
74169;BME280;62523;53.336;83.690;2023-08-20T03:12:33;98719.66;;;19.12;100.00
74169;BME280;62523;53.336;83.690;2023-08-20T03:17:34;98725.56;;;19.24;100.00
74169;BME280;62523;53.336;83.690;2023-08-20T03:22:37;98722.16;;;19.40;100.00
74169;BME280;62523;53.336;83.690;2023-08-20T03:27:40;98728.09;;;19.26;100.00
74169;BME280;62523;53.336;83.690;2023-08-20T03:32:42;98726.13;;;19.36;100.00
74169;BME280;62523;53.336;83.690;2023-08-20T03:37:44;98719.56;;;19.74;100.00
74169;BME280;62523;53.336;83.690;2023-08-20T03:42:46;98717.97;;;19.90;100.00
74169;BME280;62523;53.336;83.690;2023-08-20T03:47:48;98711.31;;;20.53;100.00
74169;BME280;62523;53.336;83.690;2023-08-20T03:52:52;98714.84;;;20.78;100.00
74169;BME280;62523;53.336;83.690;2023-08-20T03:57:53;98714.19;;;20.68;100.00
74169;BME280;62523;53.336;83.690;2023-08-20T04:02:55;98709.78;;;21.65;100.00
74169;BME280;62523;53.336;83.690;2023-08-20T04:07:56;98704.13;;;21.35;100.00
74169;BME280;62523;53.336;83.690;2023-08-20T04:12:59;98706.78;;;21.60;100.00
74169;BME280;62523;53.336;83.690;2023-08-20T04:18:00;98693.16;;;22.09;100.00
74169;BME280;62523;53.336;83.690;2023-08-20T04:23:04;98695.28;;;22.22;100.00
74169;BME280;62523;53.336;83.690;2023-08-20T04:28:06;98705.47;;;21.95;100.00
74169;BME280;62523;53.336;83.690;2023-08-20T04:33:08;98703.50;;;21.81;100.00
74169;BME280;62523;53.336;83.690;2023-08-20T04:38:10;98705.88;;;21.76;100.00
74169;BME280;62523;53.336;83.690;2023-08-20T04:43:12;98710.81;;;21.47;100.00
74169;BME280;62523;53.336;83.690;2023-08-20T04:48:14;98696.44;;;21.96;100.00
74169;BME280;62523;53.336;83.690;2023-08-20T04:53:16;98700.00;;;21.80;100.00
74169;BME280;62523;53.336;83.690;2023-08-20T04:58:20;98710.03;;;21.86;100.00
74169;BME280;62523;53.336;83.690;2023-08-20T05:03:22;98709.94;;;21.63;100.00
74169;BME280;62523;53.336;83.690;2023-08-20T05:08:23;98705.63;;;21.54;100.00
74169;BME280;62523;53.336;83.690;2023-08-20T05:13:25;98703.03;;;21.77;100.00
74169;BME280;62523;53.336;83.690;2023-08-20T05:18:27;98698.09;;;21.97;100.00
74169;BME280;62523;53.336;83.690;2023-08-20T05:23:29;98694.22;;;22.39;100.00
74169;BME280;62523;53.336;83.690;2023-08-20T05:28:31;98707.34;;;22.26;100.00
74169;BME280;62523;53.336;83.690;2023-08-20T05:33:34;98700.91;;;22.89;99.51
74169;BME280;62523;53.336;83.690;2023-08-20T05:38:37;98696.13;;;22.77;97.89
74169;BME280;62523;53.336;83.690;2023-08-20T05:43:39;98695.78;;;23.56;94.28
74169;BME280;62523;53.336;83.690;2023-08-20T05:48:41;98697.56;;;23.10;91.72
74169;BME280;62523;53.336;83.690;2023-08-20T05:53:45;98709.59;;;22.92;89.06
74169;BME280;62523;53.336;83.690;2023-08-20T05:58:47;98699.91;;;23.28;88.54
74169;BME280;62523;53.336;83.690;2023-08-20T06:03:49;98700.53;;;22.93;88.66
74169;BME280;62523;53.336;83.690;2023-08-20T06:08:52;98706.25;;;22.89;89.70
74169;BME280;62523;53.336;83.690;2023-08-20T06:13:54;98694.81;;;23.34;89.22
74169;BME280;62523;53.336;83.690;2023-08-20T06:18:57;98699.50;;;23.02;87.28
74169;BME280;62523;53.336;83.690;2023-08-20T06:23:59;98705.84;;;23.01;88.39
74169;BME280;62523;53.336;83.690;2023-08-20T06:29:00;98704.47;;;23.05;87.09
74169;BME280;62523;53.336;83.690;2023-08-20T06:34:03;98691.34;;;23.10;85.86
74169;BME280;62523;53.336;83.690;2023-08-20T06:39:05;98690.59;;;23.16;87.56
74169;BME280;62523;53.336;83.690;2023-08-20T06:44:07;98697.22;;;23.28;86.40
74169;BME280;62523;53.336;83.690;2023-08-20T06:49:09;98693.41;;;23.38;83.16
74169;BME280;62523;53.336;83.690;2023-08-20T06:54:11;98687.16;;;23.90;81.28
74169;BME280;62523;53.336;83.690;2023-08-20T06:59:12;98674.06;;;23.72;79.70
74169;BME280;62523;53.336;83.690;2023-08-20T07:04:14;98674.25;;;23.70;78.98
74169;BME280;62523;53.336;83.690;2023-08-20T07:09:16;98673.38;;;24.15;81.30
74169;BME280;62523;53.336;83.690;2023-08-20T07:14:18;98673.16;;;23.95;81.08
74169;BME280;62523;53.336;83.690;2023-08-20T07:19:20;98676.75;;;23.57;83.19
74169;BME280;62523;53.336;83.690;2023-08-20T07:24:21;98678.22;;;23.30;80.26
74169;BME280;62523;53.336;83.690;2023-08-20T07:29:27;98679.75;;;22.86;83.45
74169;BME280;62523;53.336;83.690;2023-08-20T07:34:31;98690.88;;;22.37;84.48
74169;BME280;62523;53.336;83.690;2023-08-20T07:39:35;98685.66;;;22.04;86.51
74169;BME280;62523;53.336;83.690;2023-08-20T07:44:37;98691.94;;;21.88;88.03
74169;BME280;62523;53.336;83.690;2023-08-20T07:49:39;98693.09;;;21.30;94.85
74169;BME280;62523;53.336;83.690;2023-08-20T07:54:41;98700.91;;;20.50;100.00
74169;BME280;62523;53.336;83.690;2023-08-20T07:59:46;98722.13;;;20.43;100.00
74169;BME280;62523;53.336;83.690;2023-08-20T08:04:47;98735.34;;;20.44;100.00
74169;BME280;62523;53.336;83.690;2023-08-20T08:09:49;98750.22;;;20.31;100.00
74169;BME280;62523;53.336;83.690;2023-08-20T08:14:51;98766.25;;;19.88;100.00
74169;BME280;62523;53.336;83.690;2023-08-20T08:19:53;98775.59;;;19.66;100.00
74169;BME280;62523;53.336;83.690;2023-08-20T08:24:58;98779.69;;;19.08;100.00
74169;BME280;62523;53.336;83.690;2023-08-20T08:30:00;98783.13;;;19.00;100.00
74169;BME280;62523;53.336;83.690;2023-08-20T08:35:05;98782.88;;;18.94;100.00
74169;BME280;62523;53.336;83.690;2023-08-20T08:40:08;98787.91;;;18.97;100.00
74169;BME280;62523;53.336;83.690;2023-08-20T08:45:12;98769.22;;;18.97;100.00
74169;BME280;62523;53.336;83.690;2023-08-20T08:50:13;98767.94;;;19.01;100.00
74169;BME280;62523;53.336;83.690;2023-08-20T08:55:16;98762.41;;;19.38;100.00
74169;BME280;62523;53.336;83.690;2023-08-20T09:00:18;98768.28;;;19.68;100.00
74169;BME280;62523;53.336;83.690;2023-08-20T09:05:19;98757.69;;;19.84;100.00
74169;BME280;62523;53.336;83.690;2023-08-20T09:10:21;98748.84;;;19.84;100.00
74169;BME280;62523;53.336;83.690;2023-08-20T09:15:31;98736.50;;;19.91;100.00
74169;BME280;62523;53.336;83.690;2023-08-20T09:20:37;98742.13;;;20.14;100.00
74169;BME280;62523;53.336;83.690;2023-08-20T09:25:48;98742.34;;;20.29;100.00
74169;BME280;62523;53.336;83.690;2023-08-20T09:30:58;98735.59;;;20.17;100.00
74169;BME280;62523;53.336;83.690;2023-08-20T09:36:07;98726.47;;;20.36;100.00
74169;BME280;62523;53.336;83.690;2023-08-20T09:41:09;98717.31;;;20.46;100.00
74169;BME280;62523;53.336;83.690;2023-08-20T09:46:12;98701.84;;;20.99;100.00
74169;BME280;62523;53.336;83.690;2023-08-20T09:51:17;98702.94;;;21.38;100.00
74169;BME280;62523;53.336;83.690;2023-08-20T09:56:22;98694.94;;;21.30;100.00
74169;BME280;62523;53.336;83.690;2023-08-20T10:01:29;98699.56;;;21.68;99.98
74169;BME280;62523;53.336;83.690;2023-08-20T10:06:32;98690.09;;;21.81;98.89
74169;BME280;62523;53.336;83.690;2023-08-20T10:11:35;98683.84;;;21.97;97.13
74169;BME280;62523;53.336;83.690;2023-08-20T10:16:39;98680.34;;;21.96;98.13
74169;BME280;62523;53.336;83.690;2023-08-20T10:21:44;98667.47;;;22.23;91.32
74169;BME280;62523;53.336;83.690;2023-08-20T10:26:48;98654.78;;;22.08;92.34
74169;BME280;62523;53.336;83.690;2023-08-20T10:31:54;98663.03;;;22.38;92.79
74169;BME280;62523;53.336;83.690;2023-08-20T10:36:55;98651.69;;;22.20;93.97
74169;BME280;62523;53.336;83.690;2023-08-20T10:47:17;98663.38;;;22.58;94.60
74169;BME280;62523;53.336;83.690;2023-08-20T10:52:25;98671.13;;;22.76;94.46
74169;BME280;62523;53.336;83.690;2023-08-20T10:57:33;98675.53;;;22.92;94.31
74169;BME280;62523;53.336;83.690;2023-08-20T11:02:35;98671.25;;;23.06;89.67
74169;BME280;62523;53.336;83.690;2023-08-20T11:07:37;98661.50;;;23.05;87.50
74169;BME280;62523;53.336;83.690;2023-08-20T11:12:39;98658.97;;;23.41;85.43
74169;BME280;62523;53.336;83.690;2023-08-20T11:17:45;98660.16;;;23.24;85.83
74169;BME280;62523;53.336;83.690;2023-08-20T11:22:47;98656.81;;;23.37;84.83
74169;BME280;62523;53.336;83.690;2023-08-20T11:27:50;98667.28;;;23.31;84.50
74169;BME280;62523;53.336;83.690;2023-08-20T11:32:52;98671.75;;;23.39;87.20
74169;BME280;62523;53.336;83.690;2023-08-20T11:37:54;98682.13;;;23.57;84.76
74169;BME280;62523;53.336;83.690;2023-08-20T11:42:57;98675.09;;;23.71;85.31
74169;BME280;62523;53.336;83.690;2023-08-20T11:47:59;98676.00;;;23.93;83.55
74169;BME280;62523;53.336;83.690;2023-08-20T11:53:01;98688.78;;;23.61;85.07
74169;BME280;62523;53.336;83.690;2023-08-20T11:58:05;98690.31;;;23.49;87.35
74169;BME280;62523;53.336;83.690;2023-08-20T12:03:08;98691.56;;;23.68;84.68
74169;BME280;62523;53.336;83.690;2023-08-20T12:08:15;98692.13;;;23.48;82.91
74169;BME280;62523;53.336;83.690;2023-08-20T12:13:19;98707.22;;;23.35;83.67
74169;BME280;62523;53.336;83.690;2023-08-20T12:18:21;98700.16;;;23.19;84.25
74169;BME280;62523;53.336;83.690;2023-08-20T12:23:23;98704.31;;;23.06;86.37
74169;BME280;62523;53.336;83.690;2023-08-20T12:28:25;98723.41;;;22.65;91.50
74169;BME280;62523;53.336;83.690;2023-08-20T12:33:27;98732.00;;;22.29;95.54
74169;BME280;62523;53.336;83.690;2023-08-20T12:38:29;98728.53;;;22.13;97.10
74169;BME280;62523;53.336;83.690;2023-08-20T12:43:34;98728.22;;;22.07;97.06
74169;BME280;62523;53.336;83.690;2023-08-20T12:48:36;98733.56;;;22.16;96.61
74169;BME280;62523;53.336;83.690;2023-08-20T12:53:37;98725.00;;;22.75;92.74
74169;BME280;62523;53.336;83.690;2023-08-20T12:58:39;98734.97;;;22.35;94.17
74169;BME280;62523;53.336;83.690;2023-08-20T13:03:40;98732.75;;;22.46;93.56
74169;BME280;62523;53.336;83.690;2023-08-20T13:08:42;98739.63;;;22.41;93.53
74169;BME280;62523;53.336;83.690;2023-08-20T13:13:45;98751.03;;;22.03;97.93
74169;BME280;62523;53.336;83.690;2023-08-20T13:18:47;98746.25;;;21.82;100.00
74169;BME280;62523;53.336;83.690;2023-08-20T13:23:49;98749.28;;;21.71;100.00
74169;BME280;62523;53.336;83.690;2023-08-20T13:28:51;98757.72;;;21.60;100.00
74169;BME280;62523;53.336;83.690;2023-08-20T13:33:53;98756.69;;;21.44;100.00
74169;BME280;62523;53.336;83.690;2023-08-20T13:38:55;98769.25;;;21.36;100.00
74169;BME280;62523;53.336;83.690;2023-08-20T13:43:56;98769.75;;;21.31;100.00
74169;BME280;62523;53.336;83.690;2023-08-20T13:48:58;98769.44;;;21.26;100.00
74169;BME280;62523;53.336;83.690;2023-08-20T13:54:00;98770.41;;;21.25;100.00
74169;BME280;62523;53.336;83.690;2023-08-20T13:59:01;98760.22;;;21.28;100.00
74169;BME280;62523;53.336;83.690;2023-08-20T14:04:03;98761.56;;;21.24;100.00
74169;BME280;62523;53.336;83.690;2023-08-20T14:09:05;98763.41;;;21.16;100.00
74169;BME280;62523;53.336;83.690;2023-08-20T14:14:06;98768.44;;;21.11;100.00
74169;BME280;62523;53.336;83.690;2023-08-20T14:19:08;98783.31;;;20.97;100.00
74169;BME280;62523;53.336;83.690;2023-08-20T14:24:09;98786.81;;;20.89;100.00
74169;BME280;62523;53.336;83.690;2023-08-20T14:29:11;98792.31;;;20.79;100.00
74169;BME280;62523;53.336;83.690;2023-08-20T14:34:13;98809.03;;;20.65;100.00
74169;BME280;62523;53.336;83.690;2023-08-20T14:39:15;98813.34;;;20.58;100.00
74169;BME280;62523;53.336;83.690;2023-08-20T14:44:16;98813.56;;;20.38;100.00
74169;BME280;62523;53.336;83.690;2023-08-20T14:49:18;98839.25;;;20.23;100.00
74169;BME280;62523;53.336;83.690;2023-08-20T14:54:19;98853.34;;;19.99;100.00
74169;BME280;62523;53.336;83.690;2023-08-20T14:59:22;98869.59;;;19.79;100.00
74169;BME280;62523;53.336;83.690;2023-08-20T15:04:24;98868.25;;;19.65;100.00
74169;BME280;62523;53.336;83.690;2023-08-20T15:09:26;98867.75;;;19.44;100.00
74169;BME280;62523;53.336;83.690;2023-08-20T15:14:28;98863.28;;;19.44;100.00
74169;BME280;62523;53.336;83.690;2023-08-20T15:19:30;98862.63;;;19.51;100.00
74169;BME280;62523;53.336;83.690;2023-08-20T15:24:32;98869.28;;;19.47;100.00
74169;BME280;62523;53.336;83.690;2023-08-20T15:29:33;98872.41;;;19.42;100.00
74169;BME280;62523;53.336;83.690;2023-08-20T15:34:35;98867.53;;;19.37;100.00
74169;BME280;62523;53.336;83.690;2023-08-20T15:39:38;98864.09;;;19.27;100.00
74169;BME280;62523;53.336;83.690;2023-08-20T15:44:40;98867.16;;;19.14;100.00
74169;BME280;62523;53.336;83.690;2023-08-20T15:49:42;98865.53;;;19.03;100.00
74169;BME280;62523;53.336;83.690;2023-08-20T15:54:44;98873.41;;;18.87;100.00
74169;BME280;62523;53.336;83.690;2023-08-20T15:59:46;98877.34;;;18.73;100.00
74169;BME280;62523;53.336;83.690;2023-08-20T16:04:49;98886.50;;;18.71;100.00
74169;BME280;62523;53.336;83.690;2023-08-20T16:09:50;98888.69;;;18.57;100.00
74169;BME280;62523;53.336;83.690;2023-08-20T16:14:52;98901.91;;;18.49;100.00
74169;BME280;62523;53.336;83.690;2023-08-20T16:19:54;98896.34;;;18.42;100.00
74169;BME280;62523;53.336;83.690;2023-08-20T16:24:56;98901.28;;;18.37;100.00
74169;BME280;62523;53.336;83.690;2023-08-20T16:29:58;98906.19;;;18.32;100.00
74169;BME280;62523;53.336;83.690;2023-08-20T16:34:59;98902.44;;;18.25;100.00
74169;BME280;62523;53.336;83.690;2023-08-20T16:40:01;98894.31;;;18.17;100.00
74169;BME280;62523;53.336;83.690;2023-08-20T16:45:07;98889.72;;;18.09;100.00
74169;BME280;62523;53.336;83.690;2023-08-20T16:50:10;98892.66;;;18.06;100.00
74169;BME280;62523;53.336;83.690;2023-08-20T16:55:12;98878.06;;;18.10;100.00
74169;BME280;62523;53.336;83.690;2023-08-20T17:00:14;98874.84;;;18.07;100.00
74169;BME280;62523;53.336;83.690;2023-08-20T17:05:16;98857.19;;;18.06;100.00
74169;BME280;62523;53.336;83.690;2023-08-20T17:10:18;98854.91;;;18.11;100.00
74169;BME280;62523;53.336;83.690;2023-08-20T17:15:20;98848.88;;;18.09;100.00
74169;BME280;62523;53.336;83.690;2023-08-20T17:20:21;98841.06;;;18.07;100.00
74169;BME280;62523;53.336;83.690;2023-08-20T17:25:22;98840.38;;;18.05;100.00
74169;BME280;62523;53.336;83.690;2023-08-20T17:30:24;98842.34;;;17.93;100.00
74169;BME280;62523;53.336;83.690;2023-08-20T17:35:25;98846.38;;;18.07;100.00
74169;BME280;62523;53.336;83.690;2023-08-20T17:40:27;98847.50;;;18.05;100.00
74169;BME280;62523;53.336;83.690;2023-08-20T17:45:28;98854.00;;;17.92;100.00
74169;BME280;62523;53.336;83.690;2023-08-20T17:50:36;98856.94;;;17.79;100.00
74169;BME280;62523;53.336;83.690;2023-08-20T17:55:48;98871.28;;;17.69;100.00
74169;BME280;62523;53.336;83.690;2023-08-20T18:00:49;98877.47;;;17.59;100.00
74169;BME280;62523;53.336;83.690;2023-08-20T18:05:51;98875.06;;;17.37;100.00
74169;BME280;62523;53.336;83.690;2023-08-20T18:10:53;98889.78;;;17.41;100.00
74169;BME280;62523;53.336;83.690;2023-08-20T18:15:55;98896.66;;;17.44;100.00
74169;BME280;62523;53.336;83.690;2023-08-20T18:20:57;98886.84;;;17.44;100.00
74169;BME280;62523;53.336;83.690;2023-08-20T18:25:58;98893.84;;;17.45;100.00
74169;BME280;62523;53.336;83.690;2023-08-20T18:31:00;98897.78;;;17.41;100.00
74169;BME280;62523;53.336;83.690;2023-08-20T18:36:02;98898.19;;;17.36;100.00
74169;BME280;62523;53.336;83.690;2023-08-20T18:41:06;98907.03;;;17.27;100.00
74169;BME280;62523;53.336;83.690;2023-08-20T18:46:08;98912.19;;;17.19;100.00
74169;BME280;62523;53.336;83.690;2023-08-20T18:51:10;98914.72;;;17.11;100.00
74169;BME280;62523;53.336;83.690;2023-08-20T18:56:11;98914.72;;;17.11;100.00
74169;BME280;62523;53.336;83.690;2023-08-20T19:01:13;98905.19;;;17.08;100.00
74169;BME280;62523;53.336;83.690;2023-08-20T19:06:14;98908.69;;;17.18;100.00
74169;BME280;62523;53.336;83.690;2023-08-20T19:11:16;98908.41;;;17.22;100.00
74169;BME280;62523;53.336;83.690;2023-08-20T19:16:17;98906.59;;;17.12;100.00
74169;BME280;62523;53.336;83.690;2023-08-20T19:21:19;98903.78;;;17.14;100.00
74169;BME280;62523;53.336;83.690;2023-08-20T19:26:20;98893.84;;;17.06;100.00
74169;BME280;62523;53.336;83.690;2023-08-20T19:31:22;98894.53;;;17.08;100.00
74169;BME280;62523;53.336;83.690;2023-08-20T19:36:24;98882.91;;;16.99;100.00
74169;BME280;62523;53.336;83.690;2023-08-20T19:41:25;98880.63;;;16.95;100.00
74169;BME280;62523;53.336;83.690;2023-08-20T19:46:27;98876.44;;;16.92;100.00
74169;BME280;62523;53.336;83.690;2023-08-20T19:51:28;98869.31;;;16.93;100.00
74169;BME280;62523;53.336;83.690;2023-08-20T19:56:29;98862.59;;;16.98;100.00
74169;BME280;62523;53.336;83.690;2023-08-20T20:01:44;98860.19;;;16.86;100.00
74169;BME280;62523;53.336;83.690;2023-08-20T20:06:46;98864.78;;;16.84;100.00
74169;BME280;62523;53.336;83.690;2023-08-20T20:11:47;98864.78;;;16.84;100.00
74169;BME280;62523;53.336;83.690;2023-08-20T20:16:49;98873.56;;;16.74;100.00
74169;BME280;62523;53.336;83.690;2023-08-20T20:21:50;98874.53;;;16.73;100.00
74169;BME280;62523;53.336;83.690;2023-08-20T20:26:52;98877.00;;;16.55;100.00
74169;BME280;62523;53.336;83.690;2023-08-20T20:31:53;98883.44;;;16.53;100.00
74169;BME280;62523;53.336;83.690;2023-08-20T20:36:55;98893.03;;;16.34;100.00
74169;BME280;62523;53.336;83.690;2023-08-20T20:41:56;98900.50;;;16.20;100.00
74169;BME280;62523;53.336;83.690;2023-08-20T20:46:58;98905.06;;;16.08;100.00
74169;BME280;62523;53.336;83.690;2023-08-20T20:51:59;98903.53;;;16.05;100.00
74169;BME280;62523;53.336;83.690;2023-08-20T20:57:01;98907.50;;;15.90;100.00
74169;BME280;62523;53.336;83.690;2023-08-20T21:02:03;98912.00;;;15.78;100.00
74169;BME280;62523;53.336;83.690;2023-08-20T21:07:04;98905.50;;;15.71;100.00
74169;BME280;62523;53.336;83.690;2023-08-20T21:12:06;98915.94;;;15.63;100.00
74169;BME280;62523;53.336;83.690;2023-08-20T21:17:08;98904.16;;;15.55;100.00
74169;BME280;62523;53.336;83.690;2023-08-20T21:22:13;98911.63;;;15.50;100.00
74169;BME280;62523;53.336;83.690;2023-08-20T21:27:15;98911.56;;;15.41;100.00
74169;BME280;62523;53.336;83.690;2023-08-20T21:32:16;98919.44;;;15.31;100.00
74169;BME280;62523;53.336;83.690;2023-08-20T21:37:18;98925.38;;;15.23;100.00
74169;BME280;62523;53.336;83.690;2023-08-20T21:42:20;98915.00;;;15.20;100.00
74169;BME280;62523;53.336;83.690;2023-08-20T21:47:25;98918.53;;;15.09;100.00
74169;BME280;62523;53.336;83.690;2023-08-20T21:52:27;98925.94;;;15.06;100.00
74169;BME280;62523;53.336;83.690;2023-08-20T21:57:29;98924.84;;;14.97;100.00
74169;BME280;62523;53.336;83.690;2023-08-20T22:02:30;98922.09;;;14.87;100.00
74169;BME280;62523;53.336;83.690;2023-08-20T22:07:32;98937.66;;;14.81;100.00
74169;BME280;62523;53.336;83.690;2023-08-20T22:12:33;98941.63;;;14.75;100.00
74169;BME280;62523;53.336;83.690;2023-08-20T22:17:35;98932.00;;;14.63;100.00
74169;BME280;62523;53.336;83.690;2023-08-20T22:22:37;98946.69;;;14.56;100.00
74169;BME280;62523;53.336;83.690;2023-08-20T22:27:39;98950.03;;;14.46;100.00
74169;BME280;62523;53.336;83.690;2023-08-20T22:32:40;98941.38;;;14.44;100.00
74169;BME280;62523;53.336;83.690;2023-08-20T22:38:05;98946.06;;;14.41;100.00
74169;BME280;62523;53.336;83.690;2023-08-20T22:43:06;98929.09;;;14.43;100.00
74169;BME280;62523;53.336;83.690;2023-08-20T22:48:08;98939.34;;;14.48;100.00
74169;BME280;62523;53.336;83.690;2023-08-20T22:53:10;98943.78;;;14.47;100.00
74169;BME280;62523;53.336;83.690;2023-08-20T22:58:11;98945.69;;;14.45;100.00
74169;BME280;62523;53.336;83.690;2023-08-20T23:03:13;98950.50;;;14.51;100.00
74169;BME280;62523;53.336;83.690;2023-08-20T23:08:14;98939.91;;;14.51;100.00
74169;BME280;62523;53.336;83.690;2023-08-20T23:13:16;98941.25;;;14.46;100.00
74169;BME280;62523;53.336;83.690;2023-08-20T23:18:17;98936.19;;;14.43;100.00
74169;BME280;62523;53.336;83.690;2023-08-20T23:23:19;98950.16;;;14.45;100.00
74169;BME280;62523;53.336;83.690;2023-08-20T23:28:20;98956.66;;;14.41;100.00
74169;BME280;62523;53.336;83.690;2023-08-20T23:33:22;98969.66;;;14.32;100.00
74169;BME280;62523;53.336;83.690;2023-08-20T23:38:23;98984.84;;;14.30;100.00
74169;BME280;62523;53.336;83.690;2023-08-20T23:43:25;98986.88;;;14.27;100.00
74169;BME280;62523;53.336;83.690;2023-08-20T23:48:27;98991.22;;;14.28;100.00
74169;BME280;62523;53.336;83.690;2023-08-20T23:53:29;98984.84;;;14.30;100.00
74169;BME280;62523;53.336;83.690;2023-08-20T23:58:31;98979.66;;;14.40;100.00
